createdAt,value
2023-02-15T00:02:06.326Z,39.27
2023-02-15T00:04:48.034Z,39.73
2023-02-15T00:07:19.275Z,40.73
2023-02-15T00:09:48.668Z,35.63
2023-02-15T00:12:18.289Z,41.80
2023-02-15T00:14:49.833Z,37.70
2023-02-15T00:18:08.357Z,34.60
2023-02-15T00:20:37.441Z,37.67
2023-02-15T00:23:05.904Z,39.40
2023-02-15T00:25:34.375Z,38.43
2023-02-15T00:28:02.895Z,39.30
2023-02-15T00:30:33.574Z,37.77
2023-02-15T00:33:28.118Z,35.63
2023-02-15T00:35:59.733Z,35.73
2023-02-15T00:38:29.204Z,36.20
2023-02-15T00:40:59.992Z,39.20
2023-02-15T00:43:29.916Z,38.77
2023-02-15T00:46:00.490Z,37.97
2023-02-15T00:48:29.736Z,39.03
2023-02-15T00:51:00.503Z,36.03
2023-02-15T00:53:30.564Z,38.00
2023-02-15T00:56:00.064Z,38.87
2023-02-15T00:58:28.779Z,33.90
2023-02-15T01:00:57.242Z,40.43
2023-02-15T01:03:27.154Z,34.10
2023-02-15T01:05:55.657Z,35.60
2023-02-15T01:08:24.078Z,36.07
2023-02-15T01:10:52.664Z,38.07
2023-02-15T01:13:21.636Z,38.13
2023-02-15T01:15:56.257Z,39.50
2023-02-15T01:18:26.304Z,34.07
2023-02-15T01:20:55.349Z,36.60
2023-02-15T01:23:24.025Z,40.60
2023-02-15T01:25:52.550Z,37.77
2023-02-15T01:28:21.060Z,35.67
2023-02-15T01:30:49.824Z,37.67
2023-02-15T01:33:19.551Z,35.00
2023-02-15T01:35:49.544Z,37.17
2023-02-15T01:38:18.446Z,35.03
2023-02-15T01:40:47.039Z,36.77
2023-02-15T01:43:15.622Z,37.13
2023-02-15T01:45:47.500Z,32.40
2023-02-15T01:48:24.924Z,34.03
2023-02-15T01:50:59.663Z,34.70
2023-02-15T01:53:34.127Z,36.90
2023-02-15T01:56:08.830Z,35.30
2023-02-15T01:58:39.300Z,32.37
2023-02-15T02:01:10.979Z,40.83
2023-02-15T02:03:53.967Z,37.87
2023-02-15T02:06:26.190Z,34.23
2023-02-15T02:08:57.426Z,35.87
2023-02-15T02:11:26.073Z,34.67
2023-02-15T02:13:57.063Z,34.87
2023-02-15T02:16:34.287Z,33.43
2023-02-15T02:19:31.183Z,34.60
2023-02-15T02:22:43.228Z,30.83
2023-02-15T02:25:38.054Z,36.17
2023-02-15T02:28:52.301Z,31.83
2023-02-15T02:31:50.513Z,32.17
2023-02-15T02:34:31.247Z,32.10
2023-02-15T02:37:11.301Z,36.73
2023-02-15T02:39:52.182Z,31.00
2023-02-15T02:42:30.679Z,32.47
2023-02-15T02:45:07.610Z,32.63
2023-02-15T02:47:43.994Z,31.70
2023-02-15T02:50:18.064Z,35.97
2023-02-15T02:52:48.731Z,34.30
2023-02-15T02:55:24.703Z,38.53
2023-02-15T02:57:59.658Z,34.20
2023-02-15T03:00:33.877Z,32.53
2023-02-15T03:03:09.254Z,30.77
2023-02-15T03:05:45.518Z,35.60
2023-02-15T03:08:22.669Z,33.47
2023-02-15T03:10:54.789Z,31.10
2023-02-15T03:13:24.571Z,36.63
2023-02-15T03:16:12.428Z,33.00
2023-02-15T03:18:53.680Z,33.50
2023-02-15T03:21:30.016Z,33.47
2023-02-15T03:24:08.944Z,31.40
2023-02-15T03:26:41.268Z,33.40
2023-02-15T03:29:12.888Z,32.87
2023-02-15T03:31:47.944Z,30.33
2023-02-15T03:34:19.094Z,31.73
2023-02-15T03:36:58.222Z,32.20
2023-02-15T03:39:34.603Z,32.80
2023-02-15T03:42:14.411Z,34.47
2023-02-15T03:44:54.322Z,31.13
2023-02-15T03:47:29.648Z,32.97
2023-02-15T03:50:04.178Z,32.40
2023-02-15T03:52:36.591Z,34.13
2023-02-15T03:55:05.500Z,30.40
2023-02-15T03:58:10.479Z,30.97
2023-02-15T04:01:04.691Z,31.80
2023-02-15T04:03:41.448Z,31.80
2023-02-15T04:06:10.106Z,33.37
2023-02-15T04:08:57.430Z,33.00
2023-02-15T04:11:25.974Z,31.10
2023-02-15T04:13:57.698Z,30.87
2023-02-15T04:16:25.848Z,29.40
2023-02-15T04:19:11.859Z,33.33
2023-02-15T04:21:57.852Z,33.97
2023-02-15T04:24:44.816Z,32.40
2023-02-15T04:27:13.265Z,33.90
2023-02-15T04:29:41.984Z,37.20
2023-02-15T04:32:10.611Z,38.40
2023-02-15T04:34:39.110Z,33.60
2023-02-15T04:37:33.085Z,32.17
2023-02-15T04:40:03.645Z,30.67
2023-02-15T04:42:32.084Z,32.67
2023-02-15T04:45:00.542Z,30.40
2023-02-15T04:47:29.042Z,32.67
2023-02-15T04:49:58.251Z,31.17
2023-02-15T04:52:27.032Z,33.43
2023-02-15T04:54:55.535Z,36.73
2023-02-15T04:57:25.417Z,33.37
2023-02-15T04:59:53.999Z,37.13
2023-02-15T05:02:22.623Z,36.17
2023-02-15T05:04:51.091Z,34.97
2023-02-15T05:07:21.284Z,34.90
2023-02-15T05:09:49.884Z,33.27
2023-02-15T05:12:18.458Z,33.93
2023-02-15T05:14:48.265Z,36.27
2023-02-15T05:17:16.795Z,35.10
2023-02-15T05:19:45.283Z,36.53
2023-02-15T05:22:13.750Z,36.17
2023-02-15T05:24:59.598Z,33.47
2023-02-15T05:39:08.089Z,32.73
2023-02-15T05:41:36.720Z,37.47
2023-02-15T05:44:05.684Z,32.93
2023-02-15T05:46:34.247Z,32.67
2023-02-15T05:49:02.764Z,32.83
2023-02-15T05:51:31.205Z,36.93
2023-02-15T05:53:59.725Z,67.03
2023-02-15T05:56:29.478Z,48.07
2023-02-15T05:58:57.890Z,35.90
2023-02-15T06:01:26.307Z,36.47
2023-02-15T06:03:55.344Z,37.90
2023-02-15T06:06:24.002Z,40.33
2023-02-15T06:08:52.434Z,53.50
2023-02-15T06:11:20.872Z,55.97
2023-02-15T06:13:50.749Z,50.87
2023-02-15T06:16:19.195Z,35.93
2023-02-15T06:18:53.685Z,35.50
2023-02-15T06:21:22.358Z,32.73
2023-02-15T06:23:50.983Z,32.83
2023-02-15T06:26:19.473Z,38.60
2023-02-15T06:28:47.963Z,36.50
2023-02-15T06:31:18.010Z,49.37
2023-02-15T06:33:46.534Z,43.00
2023-02-15T06:36:14.928Z,34.17
2023-02-15T06:38:43.394Z,34.70
2023-02-15T06:41:11.919Z,31.77
2023-02-15T06:43:41.127Z,32.40
2023-02-15T06:46:09.623Z,39.03
2023-02-15T06:48:39.597Z,38.63
2023-02-15T06:51:08.059Z,37.73
2023-02-15T06:53:36.849Z,34.83
2023-02-15T06:56:14.072Z,32.83
2023-02-15T06:58:43.971Z,37.03
2023-02-15T07:01:12.484Z,29.37
2023-02-15T07:03:42.265Z,30.83
2023-02-15T07:06:11.697Z,28.87
2023-02-15T07:08:42.993Z,26.10
2023-02-15T07:11:29.078Z,28.50
2023-02-15T07:13:57.919Z,30.13
2023-02-15T07:16:26.473Z,34.30
2023-02-15T07:18:56.345Z,26.00
2023-02-15T07:21:24.749Z,24.70
2023-02-15T07:23:53.572Z,24.93
2023-02-15T07:26:22.071Z,23.83
2023-02-15T07:28:50.584Z,25.53
2023-02-15T07:31:19.494Z,22.67
2023-02-15T07:33:48.016Z,24.27
2023-02-15T07:36:17.818Z,25.53
2023-02-15T07:38:46.384Z,20.90
2023-02-15T07:41:17.275Z,23.63
2023-02-15T07:43:47.512Z,22.17
2023-02-15T07:46:18.903Z,21.87
2023-02-15T07:48:47.497Z,22.73
2023-02-15T07:51:18.139Z,21.30
2023-02-15T07:53:48.162Z,22.80
2023-02-15T07:56:17.856Z,23.03
2023-02-15T07:58:56.794Z,20.63
2023-02-15T08:01:28.899Z,21.77
2023-02-15T08:04:01.480Z,22.17
2023-02-15T08:06:34.729Z,21.90
2023-02-15T08:09:06.078Z,21.67
2023-02-15T08:11:38.703Z,23.17
2023-02-15T08:14:33.299Z,20.50
2023-02-15T08:17:51.423Z,20.33
2023-02-15T08:20:20.101Z,24.17
2023-02-15T08:22:49.876Z,20.57
2023-02-15T08:25:23.172Z,21.27
2023-02-15T08:27:52.326Z,22.70
2023-02-15T08:30:20.880Z,19.37
2023-02-15T08:32:49.343Z,22.17
2023-02-15T08:35:18.206Z,21.13
2023-02-15T08:37:46.623Z,21.63
2023-02-15T08:40:17.712Z,19.53
2023-02-15T08:42:46.202Z,22.17
2023-02-15T08:45:14.606Z,23.17
2023-02-15T08:47:43.116Z,20.60
2023-02-15T08:50:12.229Z,21.17
2023-02-15T08:52:40.652Z,22.63
2023-02-15T08:55:09.515Z,24.27
2023-02-15T08:57:39.649Z,22.37
2023-02-15T09:00:09.986Z,23.40
2023-02-15T09:02:38.970Z,25.90
2023-02-15T09:05:08.670Z,26.13
2023-02-15T09:07:37.174Z,27.80
2023-02-15T09:10:06.564Z,21.77
2023-02-15T09:12:34.971Z,23.87
2023-02-15T09:15:05.209Z,25.23
2023-02-15T09:17:33.667Z,22.13
2023-02-15T09:20:02.116Z,23.73
2023-02-15T09:22:34.462Z,23.27
2023-02-15T09:25:02.999Z,24.70
2023-02-15T09:27:32.197Z,24.60
2023-02-15T09:30:00.727Z,25.60
2023-02-15T09:32:30.680Z,23.10
2023-02-15T09:34:59.148Z,25.27
2023-02-15T09:37:27.618Z,26.90
2023-02-15T09:40:09.989Z,22.53
2023-02-15T09:43:32.163Z,27.40
2023-02-15T09:46:22.602Z,22.53
2023-02-15T09:48:58.158Z,21.67
2023-02-15T09:52:01.381Z,23.00
2023-02-15T09:54:47.661Z,24.93
2023-02-15T09:57:31.924Z,20.93
2023-02-15T10:00:12.064Z,23.27
2023-02-15T10:03:06.178Z,25.13
2023-02-15T10:05:51.605Z,24.80
2023-02-15T10:09:10.775Z,24.77
2023-02-15T10:11:57.318Z,22.67
2023-02-15T10:14:58.110Z,24.80
2023-02-15T10:17:46.137Z,23.33
2023-02-15T10:20:28.351Z,22.77
2023-02-15T10:23:30.834Z,23.97
2023-02-15T10:26:15.074Z,25.97
2023-02-15T10:28:50.426Z,24.70
2023-02-15T10:31:28.534Z,26.00
2023-02-15T10:34:19.737Z,23.77
2023-02-15T10:37:11.995Z,23.43
2023-02-15T10:39:56.884Z,24.43
2023-02-15T10:42:41.624Z,21.67
2023-02-15T10:45:26.061Z,25.13
2023-02-15T10:48:32.791Z,25.60
2023-02-15T10:51:05.212Z,27.40
2023-02-15T10:54:06.817Z,23.57
2023-02-15T10:56:49.303Z,28.50
2023-02-15T10:59:53.858Z,25.13
2023-02-15T11:02:33.894Z,23.23
2023-02-15T11:05:29.303Z,25.70
2023-02-15T11:08:02.629Z,28.40
2023-02-15T11:10:37.294Z,25.57
2023-02-15T11:13:13.789Z,24.13
2023-02-15T11:15:48.513Z,26.33
2023-02-15T11:18:27.077Z,22.17
2023-02-15T11:21:11.308Z,24.57
2023-02-15T11:23:46.579Z,24.03
2023-02-15T11:26:24.025Z,26.53
2023-02-15T11:28:59.444Z,22.50
2023-02-15T11:31:37.349Z,23.80
2023-02-15T11:34:17.946Z,21.10
2023-02-15T11:36:48.748Z,23.23
2023-02-15T11:39:20.303Z,24.13
2023-02-15T11:41:55.397Z,23.90
2023-02-15T11:44:34.346Z,26.73
2023-02-15T11:47:03.662Z,26.20
2023-02-15T11:49:35.987Z,24.03
2023-02-15T11:52:12.673Z,25.57
2023-02-15T11:54:46.442Z,24.57
2023-02-15T11:57:23.156Z,23.87
2023-02-15T12:00:00.318Z,24.10
2023-02-15T12:02:40.916Z,23.90
2023-02-15T12:05:17.024Z,24.43
2023-02-15T12:07:52.221Z,21.77
2023-02-15T12:10:27.740Z,21.63
2023-02-15T12:13:13.578Z,23.03
2023-02-15T12:15:47.567Z,24.90
2023-02-15T12:18:36.174Z,27.70
2023-02-15T12:21:32.517Z,22.53
2023-02-15T12:24:18.590Z,22.17
2023-02-15T12:26:58.971Z,24.50
2023-02-15T12:29:33.395Z,23.07
2023-02-15T12:32:31.778Z,24.00
2023-02-15T12:35:10.453Z,24.67
2023-02-15T12:37:39.385Z,24.87
2023-02-15T12:40:24.036Z,25.33
2023-02-15T12:42:52.603Z,26.80
2023-02-15T12:45:28.527Z,27.07
2023-02-15T12:48:23.605Z,25.60
2023-02-15T12:50:56.371Z,25.47
2023-02-15T12:53:34.828Z,25.23
2023-02-15T12:56:07.100Z,25.40
2023-02-15T12:58:36.659Z,24.27
2023-02-15T13:01:16.529Z,24.37
2023-02-15T13:04:23.298Z,23.83
2023-02-15T13:07:13.995Z,27.93
2023-02-15T13:09:42.765Z,23.30
2023-02-15T13:12:22.783Z,23.97
2023-02-15T13:14:55.741Z,26.53
2023-02-15T13:17:35.759Z,26.47
2023-02-15T13:20:18.837Z,25.90
2023-02-15T13:22:52.800Z,22.93
2023-02-15T13:25:25.066Z,24.30
2023-02-15T13:27:58.707Z,24.70
2023-02-15T13:30:33.164Z,25.00
2023-02-15T13:33:08.592Z,28.60
2023-02-15T13:35:46.668Z,25.57
2023-02-15T13:38:44.562Z,26.37
2023-02-15T13:41:19.815Z,26.47
2023-02-15T13:44:01.555Z,26.17
2023-02-15T13:47:00.108Z,25.43
2023-02-15T13:49:52.628Z,25.13
2023-02-15T13:52:26.065Z,27.00
2023-02-15T13:55:30.469Z,27.27
2023-02-15T13:58:43.083Z,25.17
2023-02-15T14:01:21.446Z,25.53
2023-02-15T14:04:16.250Z,25.47
2023-02-15T14:07:13.170Z,26.83
2023-02-15T14:10:02.477Z,29.47
2023-02-15T14:12:50.523Z,24.60
2023-02-15T14:15:37.496Z,26.63
2023-02-15T14:18:22.198Z,25.30
2023-02-15T14:21:08.171Z,25.53
2023-02-15T14:23:58.375Z,25.97
2023-02-15T14:27:01.780Z,26.60
2023-02-15T14:29:48.561Z,23.23
2023-02-15T14:32:44.625Z,28.33
2023-02-15T14:35:18.789Z,24.57
2023-02-15T14:38:16.681Z,25.43
2023-02-15T14:41:02.702Z,22.47
2023-02-15T14:43:53.468Z,29.50
2023-02-15T14:46:33.104Z,26.17
2023-02-15T14:49:13.038Z,26.07
2023-02-15T14:52:08.178Z,26.60
2023-02-15T14:55:00.507Z,24.47
2023-02-15T14:57:36.416Z,25.50
2023-02-15T15:00:40.324Z,24.20
2023-02-15T15:03:27.760Z,26.30
2023-02-15T15:06:03.251Z,24.67
2023-02-15T15:08:39.377Z,26.47
2023-02-15T15:11:48.730Z,24.23
2023-02-15T15:14:43.016Z,24.23
2023-02-15T15:17:38.930Z,26.03
2023-02-15T15:20:17.590Z,23.57
2023-02-15T15:22:46.530Z,26.10
2023-02-15T15:25:46.570Z,28.37
2023-02-15T15:28:57.786Z,26.30
2023-02-15T15:32:20.246Z,27.13
2023-02-15T15:36:02.762Z,24.10
2023-02-15T15:38:52.130Z,28.03
2023-02-15T15:41:31.485Z,27.10
2023-02-15T15:45:05.443Z,27.83
2023-02-15T15:48:06.930Z,42.23
2023-02-15T15:50:36.796Z,39.57
2023-02-15T15:53:07.503Z,39.23
2023-02-15T15:55:38.042Z,43.97
2023-02-15T15:58:09.344Z,58.60
2023-02-15T16:00:45.437Z,53.47
2023-02-15T16:03:22.224Z,39.17
2023-02-15T16:05:53.937Z,58.27
2023-02-15T16:08:33.873Z,54.67
2023-02-15T16:11:12.728Z,60.83
2023-02-15T16:13:43.274Z,58.37
2023-02-15T16:16:15.692Z,49.77
2023-02-15T16:18:45.911Z,42.63
2023-02-15T16:21:22.472Z,38.30
2023-02-15T16:24:14.905Z,29.90
2023-02-15T16:27:13.748Z,31.17
2023-02-15T16:29:42.245Z,32.00
2023-02-15T16:32:21.712Z,36.40
2023-02-15T16:35:01.028Z,35.80
2023-02-15T16:37:34.574Z,39.30
2023-02-15T16:40:03.465Z,41.83
2023-02-15T16:42:32.259Z,40.70
2023-02-15T16:45:09.294Z,35.57
2023-02-15T16:47:45.704Z,32.00
2023-02-15T16:50:25.108Z,36.00
2023-02-15T16:52:55.216Z,36.47
2023-02-15T16:55:27.308Z,31.87
2023-02-15T16:58:01.668Z,27.77
2023-02-15T17:00:36.665Z,30.30
2023-02-15T17:03:10.629Z,31.40
2023-02-15T17:05:48.400Z,33.30
2023-02-15T17:08:20.612Z,30.60
2023-02-15T17:11:18.661Z,31.27
2023-02-15T17:14:23.037Z,31.17
2023-02-15T17:16:55.579Z,29.93
2023-02-15T17:19:27.742Z,27.70
2023-02-15T17:22:00.992Z,32.43
2023-02-15T17:24:41.039Z,28.53
2023-02-15T17:27:18.329Z,33.20
2023-02-15T17:29:52.869Z,35.63
2023-02-15T17:32:25.014Z,33.67
2023-02-15T17:35:20.758Z,31.63
2023-02-15T17:37:51.752Z,32.40
2023-02-15T17:40:27.039Z,32.17
2023-02-15T17:42:55.772Z,34.17
2023-02-15T17:45:48.514Z,29.70
2023-02-15T17:48:23.712Z,28.87
2023-02-15T17:51:03.781Z,30.10
2023-02-15T17:53:35.032Z,32.40
2023-02-15T17:56:10.545Z,28.87
2023-02-15T17:58:40.426Z,31.33
2023-02-15T18:01:35.162Z,33.60
2023-02-15T18:07:31.514Z,32.53
2023-02-15T18:10:33.192Z,33.07
2023-02-15T18:13:01.669Z,32.63
2023-02-15T18:15:56.502Z,31.23
2023-02-15T18:18:47.911Z,33.50
2023-02-15T18:21:16.711Z,36.30
2023-02-15T18:23:45.222Z,33.23
2023-02-15T18:26:24.418Z,30.80
2023-02-15T18:28:53.285Z,32.83
2023-02-15T18:31:24.054Z,33.10
2023-02-15T18:34:05.202Z,32.27
2023-02-15T18:36:41.547Z,28.40
2023-02-15T18:39:26.805Z,29.77
2023-02-15T18:41:57.626Z,28.73
2023-02-15T18:44:27.262Z,28.33
2023-02-15T18:46:55.783Z,27.80
2023-02-15T18:49:24.269Z,26.57
2023-02-15T18:51:54.345Z,30.63
2023-02-15T18:54:26.410Z,31.83
2023-02-15T18:57:21.629Z,34.03
2023-02-15T18:59:50.104Z,30.97
2023-02-15T19:02:20.720Z,30.13
2023-02-15T19:04:49.189Z,29.23
2023-02-15T19:07:22.103Z,29.00
2023-02-15T19:09:56.744Z,40.77
2023-02-15T19:12:27.258Z,34.73
2023-02-15T19:14:56.793Z,37.70
2023-02-15T19:17:38.199Z,36.50
2023-02-15T19:20:08.422Z,36.90
2023-02-15T19:22:37.120Z,30.67
2023-02-15T19:25:07.170Z,32.53
2023-02-15T19:27:38.039Z,29.80
2023-02-15T19:30:17.447Z,26.93
2023-02-15T19:32:46.311Z,26.47
2023-02-15T19:35:21.935Z,29.60
2023-02-15T19:37:53.726Z,41.07
2023-02-15T19:40:25.523Z,34.80
2023-02-15T19:42:55.767Z,30.60
2023-02-15T19:45:27.022Z,34.03
2023-02-15T19:47:55.820Z,29.23
2023-02-15T19:50:27.430Z,33.77
2023-02-15T19:52:56.135Z,26.93
2023-02-15T19:55:27.510Z,31.63
2023-02-15T19:58:00.189Z,63.87
2023-02-15T20:00:32.080Z,28.97
2023-02-15T20:03:01.836Z,34.53
2023-02-15T20:05:34.266Z,32.77
2023-02-15T20:08:04.081Z,31.20
2023-02-15T20:10:33.460Z,25.70
2023-02-15T20:13:03.833Z,29.40
2023-02-15T20:15:35.795Z,29.03
2023-02-15T20:18:06.851Z,28.37
2023-02-15T20:20:42.823Z,28.77
2023-02-15T20:23:20.515Z,28.30
2023-02-15T20:25:49.519Z,31.77
2023-02-15T20:28:22.439Z,29.37
2023-02-15T20:30:52.682Z,27.17
2023-02-15T20:33:22.820Z,26.23
2023-02-15T20:35:52.676Z,26.77
2023-02-15T20:38:25.513Z,28.20
2023-02-15T20:41:13.430Z,26.53
2023-02-15T20:43:43.651Z,33.50
2023-02-15T20:46:12.518Z,28.67
2023-02-15T20:48:46.487Z,27.87
2023-02-15T20:51:19.178Z,28.13
2023-02-15T20:53:48.488Z,28.77
2023-02-15T20:56:21.272Z,30.00
2023-02-15T20:58:51.885Z,25.93
2023-02-15T21:01:21.196Z,31.47
2023-02-15T21:03:50.251Z,34.40
2023-02-15T21:06:19.073Z,30.57
2023-02-15T21:08:47.697Z,37.03
2023-02-15T21:11:22.218Z,31.90
2023-02-15T21:13:52.685Z,30.33
2023-02-15T21:16:34.635Z,28.93
2023-02-15T21:19:03.234Z,31.33
2023-02-15T21:21:34.993Z,24.90
2023-02-15T21:24:03.495Z,26.47
2023-02-15T21:26:31.934Z,25.33
2023-02-15T21:29:03.842Z,27.57
2023-02-15T21:31:33.463Z,25.90
2023-02-15T21:34:02.135Z,25.70
2023-02-15T21:36:30.677Z,21.70
2023-02-15T21:38:59.142Z,26.70
2023-02-15T21:41:46.787Z,24.97
2023-02-15T21:44:40.492Z,21.87
2023-02-15T21:47:38.205Z,25.30
2023-02-15T21:50:23.423Z,25.27
2023-02-15T21:52:52.026Z,25.47
2023-02-15T21:55:20.544Z,26.43
2023-02-15T21:57:49.062Z,26.47
2023-02-15T22:00:22.804Z,29.70
2023-02-15T22:02:55.514Z,36.93
2023-02-15T22:05:28.200Z,57.33
2023-02-15T22:07:57.270Z,40.30
2023-02-15T22:10:29.611Z,33.63
2023-02-15T22:12:58.480Z,25.43
2023-02-15T22:15:36.944Z,25.87
2023-02-15T22:18:07.062Z,25.87
2023-02-15T22:20:54.614Z,27.13
2023-02-15T22:23:24.060Z,26.03
2023-02-15T22:25:56.095Z,22.30
2023-02-15T22:28:32.404Z,22.60
2023-02-15T22:31:03.229Z,19.97
2023-02-15T22:33:35.455Z,25.53
2023-02-15T22:36:04.654Z,25.43
2023-02-15T22:38:33.278Z,21.53
2023-02-15T22:41:06.225Z,26.10
2023-02-15T22:43:41.538Z,23.67
2023-02-15T22:46:18.142Z,25.40
2023-02-15T22:48:51.677Z,27.37
2023-02-15T22:51:23.417Z,23.40
2023-02-15T22:53:53.935Z,23.33
2023-02-15T22:56:28.768Z,24.50
2023-02-15T22:59:26.214Z,26.50
2023-02-15T23:01:57.530Z,24.23
2023-02-15T23:04:29.166Z,26.07
2023-02-15T23:07:00.657Z,27.80
2023-02-15T23:09:29.167Z,22.63
2023-02-15T23:11:58.819Z,21.97
2023-02-15T23:14:32.138Z,24.83
2023-02-15T23:17:02.233Z,24.40
2023-02-15T23:19:30.745Z,20.63
2023-02-15T23:21:59.196Z,26.07
2023-02-15T23:24:31.300Z,24.47
2023-02-15T23:27:19.757Z,23.40
2023-02-15T23:30:15.814Z,25.77
2023-02-15T23:32:45.764Z,23.10
2023-02-15T23:35:16.759Z,23.30
2023-02-15T23:37:45.777Z,24.27
2023-02-15T23:43:27.777Z,24.10
2023-02-15T23:45:56.203Z,25.07
2023-02-15T23:48:35.037Z,24.67
2023-02-15T23:51:04.095Z,25.73
2023-02-15T23:53:34.145Z,24.13
2023-02-15T23:56:03.358Z,27.00
2023-02-15T23:58:40.316Z,25.57
